createdAt,value
2019-02-17T06:51:36.725Z,20.18
2019-02-17T06:54:05.125Z,20.08
2019-02-17T06:56:35.202Z,20.13
2019-02-17T06:59:03.649Z,20.22
2019-02-17T07:01:32.125Z,20.32
2019-02-17T07:04:00.593Z,20.45
2019-02-17T07:06:30.791Z,20.56
2019-02-17T07:08:59.193Z,20.68
2019-02-17T07:11:27.601Z,20.80
2019-02-17T07:13:56.194Z,20.92
2019-02-17T07:16:24.677Z,21.04
2019-02-17T07:18:53.076Z,21.13
2019-02-17T07:21:21.549Z,21.25
2019-02-17T07:23:49.947Z,21.31
2019-02-17T07:26:18.523Z,21.41
2019-02-17T07:28:46.964Z,21.50
2019-02-17T07:31:15.366Z,21.56
2019-02-17T07:33:43.771Z,21.68
2019-02-17T07:36:12.307Z,21.75
2019-02-17T07:38:40.718Z,21.81
2019-02-17T07:41:09.209Z,21.87
2019-02-17T07:43:37.643Z,21.90
2019-02-17T07:46:06.109Z,21.95
2019-02-17T07:48:34.516Z,22.03
2019-02-17T07:51:02.962Z,22.09
2019-02-17T07:53:31.401Z,22.15
2019-02-17T07:55:59.799Z,22.19
2019-02-17T07:58:28.331Z,22.25
2019-02-17T08:00:56.804Z,22.34
2019-02-17T08:03:25.203Z,22.43
2019-02-17T08:05:53.740Z,22.50
2019-02-17T08:08:22.220Z,22.58
2019-02-17T08:10:50.622Z,22.66
2019-02-17T08:13:19.140Z,22.72
2019-02-17T08:15:47.541Z,22.79
2019-02-17T08:18:15.938Z,22.85
2019-02-17T08:20:44.392Z,22.93
2019-02-17T08:23:12.868Z,22.99
2019-02-17T08:25:41.279Z,23.07
2019-02-17T08:28:09.837Z,23.13
2019-02-17T08:30:38.234Z,23.21
2019-02-17T08:33:06.634Z,23.28
2019-02-17T08:35:35.087Z,23.39
2019-02-17T08:38:03.667Z,23.42
2019-02-17T08:40:32.082Z,23.48
2019-02-17T08:43:00.586Z,23.52
2019-02-17T08:45:28.989Z,23.56
2019-02-17T08:47:57.455Z,23.60
2019-02-17T08:50:26.138Z,23.64
2019-02-17T08:52:54.576Z,23.69
2019-02-17T08:55:23.046Z,23.74
2019-02-17T08:57:51.523Z,23.79
2019-02-17T09:00:19.928Z,23.86
2019-02-17T09:02:48.328Z,23.92
2019-02-17T09:05:16.904Z,23.98
2019-02-17T09:07:45.313Z,24.05
2019-02-17T09:10:13.716Z,24.13
2019-02-17T09:12:42.184Z,24.21
2019-02-17T09:15:12.221Z,24.27
2019-02-17T09:17:40.652Z,24.36
2019-02-17T09:20:11.042Z,24.44
2019-02-17T09:22:39.457Z,24.53
2019-02-17T09:25:10.296Z,24.64
2019-02-17T09:27:38.872Z,24.73
2019-02-17T09:30:10.671Z,24.85
2019-02-17T09:32:39.071Z,24.93
2019-02-17T09:35:07.521Z,25.03
2019-02-17T09:37:35.922Z,25.12
2019-02-17T09:40:05.563Z,25.20
2019-02-17T09:42:34.003Z,25.27
2019-02-17T09:45:02.407Z,25.37
2019-02-17T09:47:30.803Z,25.45
2019-02-17T09:49:59.293Z,25.53
2019-02-17T09:52:27.692Z,25.62
2019-02-17T09:54:56.121Z,25.69
2019-02-17T09:57:24.575Z,25.77
2019-02-17T09:59:53.001Z,25.83
2019-02-17T10:02:26.447Z,25.92
2019-02-17T10:04:51.666Z,25.99
2019-02-17T10:07:20.063Z,26.07
2019-02-17T10:09:48.544Z,26.15
2019-02-17T10:12:17.024Z,26.22
2019-02-17T10:14:45.506Z,26.29
2019-02-17T10:17:13.903Z,26.35
2019-02-17T10:19:42.358Z,26.41
2019-02-17T10:22:10.763Z,26.46
2019-02-17T10:24:39.155Z,26.54
2019-02-17T10:27:07.613Z,26.62
2019-02-17T10:29:36.016Z,26.70
2019-02-17T10:32:06.616Z,26.77
2019-02-17T10:34:35.334Z,26.85
2019-02-17T10:37:03.738Z,26.92
2019-02-17T10:39:32.255Z,27.02
2019-02-17T10:42:00.711Z,27.09
2019-02-17T10:44:29.271Z,27.17
2019-02-17T10:46:57.686Z,27.25
2019-02-17T10:49:26.140Z,27.33
2019-02-17T10:51:54.566Z,27.42
2019-02-17T10:54:23.262Z,27.49
2019-02-17T10:56:51.826Z,27.57
2019-02-17T10:59:20.268Z,27.66
2019-02-17T11:01:48.735Z,27.73
2019-02-17T11:04:17.186Z,27.79
2019-02-17T11:06:45.657Z,27.87
2019-02-17T11:09:18.540Z,27.94
2019-02-17T11:11:47.053Z,28.01
2019-02-17T11:14:15.491Z,28.08
2019-02-17T11:16:43.848Z,28.14
2019-02-17T11:19:12.296Z,28.23
2019-02-17T11:21:40.693Z,28.29
2019-02-17T11:24:09.098Z,28.35
2019-02-17T11:26:37.555Z,28.41
2019-02-17T11:29:05.952Z,28.49
2019-02-17T11:31:34.354Z,28.56
2019-02-17T11:34:03.650Z,28.61
2019-02-17T11:36:32.043Z,28.69
2019-02-17T11:39:00.450Z,28.75
2019-02-17T11:41:29.122Z,28.81
2019-02-17T11:43:57.517Z,28.86
2019-02-17T11:46:25.908Z,28.92
2019-02-17T11:48:54.387Z,28.98
2019-02-17T11:51:22.816Z,29.01
2019-02-17T11:53:51.211Z,29.05
2019-02-17T11:56:19.737Z,29.10
2019-02-17T11:58:48.125Z,29.13
2019-02-17T12:01:16.517Z,29.18
2019-02-17T12:03:44.992Z,29.20
2019-02-17T12:06:13.393Z,29.24
2019-02-17T12:08:46.711Z,29.28
2019-02-17T12:11:15.307Z,29.31
2019-02-17T12:13:43.713Z,29.34
2019-02-17T12:16:12.132Z,29.38
2019-02-17T12:18:40.593Z,29.40
2019-02-17T12:21:13.375Z,29.44
2019-02-17T12:23:46.099Z,29.48
2019-02-17T12:26:16.334Z,29.52
2019-02-17T12:28:48.836Z,29.55
2019-02-17T12:31:21.690Z,29.58
2019-02-17T12:33:50.375Z,29.60
2019-02-17T12:36:18.839Z,29.65
2019-02-17T12:38:47.235Z,29.67
2019-02-17T12:41:15.723Z,29.71
2019-02-17T12:43:44.135Z,29.75
2019-02-17T12:46:12.538Z,29.76
2019-02-17T12:48:41.004Z,29.78
2019-02-17T12:51:09.404Z,29.81
2019-02-17T12:53:37.805Z,29.82
2019-02-17T12:56:06.425Z,29.83
2019-02-17T12:58:34.867Z,29.87
2019-02-17T13:01:03.270Z,29.90
2019-02-17T13:03:31.734Z,29.93
2019-02-17T13:06:00.125Z,29.96
2019-02-17T13:08:28.516Z,30.00
2019-02-17T13:10:56.972Z,30.03
2019-02-17T13:13:25.412Z,30.09
2019-02-17T13:15:53.821Z,30.17
2019-02-17T13:18:22.417Z,30.22
2019-02-17T13:20:50.820Z,30.33
2019-02-17T13:23:19.235Z,30.41
2019-02-17T13:25:47.862Z,30.51
2019-02-17T13:28:16.260Z,30.61
2019-02-17T13:30:44.689Z,30.69
2019-02-17T13:33:13.117Z,30.77
2019-02-17T13:35:41.519Z,30.87
2019-02-17T13:38:09.910Z,30.97
2019-02-17T13:40:38.375Z,31.07
2019-02-17T13:43:06.830Z,31.15
2019-02-17T13:45:35.242Z,31.15
2019-02-17T13:48:03.883Z,31.21
2019-02-17T13:50:32.290Z,31.19
2019-02-17T13:53:10.987Z,31.16
2019-02-17T13:55:30.882Z,31.12
2019-02-17T13:57:59.284Z,31.06
2019-02-17T14:00:27.793Z,31.02
2019-02-17T14:02:56.248Z,30.96
2019-02-17T14:05:24.707Z,30.88
2019-02-17T14:07:53.100Z,30.85
2019-02-17T14:10:21.610Z,30.82
2019-02-17T14:12:49.949Z,30.78
2019-02-17T14:15:21.697Z,30.71
2019-02-17T14:17:50.184Z,30.66
2019-02-17T14:20:18.579Z,30.59
2019-02-17T14:22:47.066Z,30.55
2019-02-17T14:25:15.484Z,30.52
2019-02-17T14:27:43.889Z,30.45
2019-02-17T14:30:16.472Z,30.40
2019-02-17T14:32:44.906Z,30.31
2019-02-17T14:35:13.381Z,30.23
2019-02-17T14:37:41.766Z,30.18
2019-02-17T14:40:12.045Z,30.09
2019-02-17T14:42:40.439Z,30.03
2019-02-17T14:45:11.978Z,29.94
2019-02-17T14:47:40.410Z,29.89
2019-02-17T14:50:09.141Z,29.78
2019-02-17T14:52:37.534Z,29.70
2019-02-17T14:55:08.390Z,29.60
2019-02-17T14:57:36.851Z,29.50
2019-02-17T15:00:11.686Z,29.40
2019-02-17T15:02:40.326Z,29.30
2019-02-17T15:05:09.963Z,29.19
2019-02-17T15:07:38.363Z,29.09
2019-02-17T15:10:11.322Z,28.99
2019-02-17T15:12:39.742Z,28.88
2019-02-17T15:15:10.672Z,28.78
2019-02-17T15:17:39.112Z,28.65
2019-02-17T15:20:10.762Z,28.53
2019-02-17T15:22:39.167Z,28.41
2019-02-17T15:25:10.077Z,28.29
2019-02-17T15:27:38.477Z,28.15
2019-02-17T15:30:44.987Z,28.06
2019-02-17T15:33:13.503Z,27.96
2019-02-17T15:35:44.076Z,27.83
2019-02-17T15:38:16.591Z,27.74
2019-02-17T15:40:45.075Z,27.64
2019-02-17T15:43:13.630Z,27.54
2019-02-17T15:45:42.022Z,27.47
2019-02-17T15:48:10.412Z,27.37
2019-02-17T15:50:38.851Z,27.31
2019-02-17T15:53:07.261Z,27.24
2019-02-17T15:55:35.649Z,27.17
2019-02-17T15:58:04.099Z,27.09
2019-02-17T16:00:32.540Z,27.03
2019-02-17T16:03:00.983Z,26.90
2019-02-17T16:05:29.701Z,26.91
2019-02-17T16:07:58.112Z,26.85
2019-02-17T16:10:26.503Z,26.79
2019-02-17T16:12:54.946Z,26.72
2019-02-17T16:15:27.248Z,26.66
2019-02-17T16:17:55.715Z,26.60
2019-02-17T16:20:24.239Z,26.53
2019-02-17T16:22:52.629Z,26.49
2019-02-17T16:25:21.029Z,26.44
2019-02-17T16:27:49.512Z,26.38
2019-02-17T16:30:21.940Z,26.34
2019-02-17T16:32:50.341Z,26.29
2019-02-17T16:35:18.929Z,26.22
2019-02-17T16:37:48.589Z,26.19
2019-02-17T16:40:18.037Z,26.13
2019-02-17T16:42:46.525Z,26.08
2019-02-17T16:45:15.288Z,26.03
2019-02-17T16:47:44.815Z,25.98
2019-02-17T16:50:16.472Z,25.93
2019-02-17T16:52:45.090Z,25.90
2019-02-17T16:55:13.455Z,25.85
2019-02-17T16:57:42.059Z,25.82
2019-02-17T17:00:17.595Z,25.78
2019-02-17T17:02:45.985Z,25.73
2019-02-17T17:05:14.436Z,25.70
2019-02-17T17:07:42.857Z,25.68
2019-02-17T17:10:11.246Z,25.65
2019-02-17T17:12:39.786Z,25.60
2019-02-17T17:15:09.026Z,25.57
2019-02-17T17:17:37.425Z,25.56
2019-02-17T17:20:14.794Z,25.52
2019-02-17T17:22:43.188Z,25.51
2019-02-17T17:25:12.045Z,25.47
2019-02-17T17:27:41.390Z,25.44
2019-02-17T17:30:19.738Z,25.40
2019-02-17T17:32:48.311Z,25.39
2019-02-17T17:35:16.705Z,25.34
2019-02-17T17:37:45.167Z,25.30
2019-02-17T17:40:14.851Z,25.29
2019-02-17T17:42:43.251Z,25.24
2019-02-17T17:45:14.893Z,25.21
2019-02-17T17:47:43.497Z,25.19
2019-02-17T17:50:13.435Z,25.15
2019-02-17T17:52:41.835Z,25.13
2019-02-17T17:55:11.531Z,25.10
2019-02-17T17:57:39.927Z,25.05
2019-02-17T18:00:11.734Z,25.02
2019-02-17T18:02:40.285Z,25.00
2019-02-17T18:05:09.833Z,24.97
2019-02-17T18:07:38.262Z,24.91
2019-02-17T18:10:11.509Z,24.90
2019-02-17T18:12:39.940Z,24.88
2019-02-17T18:15:11.078Z,24.85
2019-02-17T18:17:39.520Z,24.82
2019-02-17T18:20:10.950Z,24.80
2019-02-17T18:22:39.349Z,24.76
2019-02-17T18:25:09.730Z,24.75
2019-02-17T18:27:38.133Z,24.72
2019-02-17T18:30:16.737Z,24.69
2019-02-17T18:32:45.224Z,24.65
2019-02-17T18:35:19.632Z,24.64
2019-02-17T18:37:43.804Z,24.60
2019-02-17T18:40:17.810Z,24.59
2019-02-17T18:42:46.282Z,24.56
2019-02-17T18:45:16.037Z,24.54
2019-02-17T18:47:44.438Z,24.52
2019-02-17T18:50:16.102Z,24.49
2019-02-17T18:52:44.927Z,24.46
2019-02-17T18:55:13.879Z,24.44
2019-02-17T18:57:49.605Z,24.41
2019-02-17T19:00:20.897Z,24.40
2019-02-17T19:02:49.371Z,24.38
2019-02-17T19:05:20.143Z,24.36
2019-02-17T19:07:48.078Z,24.35
2019-02-17T19:10:16.488Z,24.32
2019-02-17T19:12:44.884Z,24.30
2019-02-17T19:15:15.639Z,24.28
2019-02-17T19:17:44.044Z,24.26
2019-02-17T19:20:27.311Z,24.23
2019-02-17T19:22:55.705Z,24.22
2019-02-17T19:25:24.098Z,24.20
2019-02-17T19:27:52.776Z,24.17
2019-02-17T19:30:21.314Z,24.13
2019-02-17T19:32:53.232Z,24.15
2019-02-17T19:35:21.685Z,24.14
2019-02-17T19:37:50.083Z,24.13
2019-02-17T19:40:18.519Z,24.12
2019-02-17T19:42:46.961Z,24.12
2019-02-17T19:45:16.701Z,24.12
2019-02-17T19:47:45.102Z,24.11
2019-02-17T19:50:15.884Z,24.11
2019-02-17T19:52:44.299Z,24.09
2019-02-17T19:55:14.609Z,24.08
2019-02-17T19:57:43.084Z,24.06
2019-02-17T20:00:16.476Z,24.04
2019-02-17T20:02:52.374Z,24.00
2019-02-17T20:05:22.421Z,23.98
2019-02-17T20:07:52.822Z,23.95
2019-02-17T20:10:21.151Z,23.92
2019-02-17T20:12:49.556Z,23.91
2019-02-17T20:15:17.956Z,23.89
2019-02-17T20:17:46.420Z,23.86
2019-02-17T20:20:14.908Z,23.84
2019-02-17T20:22:43.305Z,23.84
2019-02-17T20:25:11.762Z,23.83
2019-02-17T20:27:40.165Z,23.84
2019-02-17T20:30:13.182Z,23.83
2019-02-17T20:32:41.671Z,23.83
2019-02-17T20:35:10.449Z,23.82
2019-02-17T20:37:38.881Z,23.81
2019-02-17T20:40:12.489Z,23.79
2019-02-17T20:42:41.989Z,23.81
2019-02-17T20:45:11.836Z,23.78
2019-02-17T20:47:40.281Z,23.77
2019-02-17T20:50:16.680Z,23.75
2019-02-17T20:52:45.086Z,23.75
2019-02-17T20:55:14.566Z,23.75
2019-02-17T20:57:42.982Z,23.72
2019-02-17T21:00:19.809Z,23.73
2019-02-17T21:02:48.304Z,23.70
2019-02-17T21:05:16.710Z,23.70
2019-02-17T21:07:45.112Z,23.70
2019-02-17T21:10:16.419Z,23.68
2019-02-17T21:12:44.853Z,23.68
2019-02-17T21:15:16.648Z,23.68
2019-02-17T21:17:45.133Z,23.66
2019-02-17T21:20:14.211Z,23.64
2019-02-17T21:22:42.608Z,23.64
2019-02-17T21:25:12.294Z,23.64
2019-02-17T21:27:40.687Z,23.61
2019-02-17T21:30:17.218Z,23.62
2019-02-17T21:32:45.972Z,23.63
2019-02-17T21:35:15.781Z,23.60
2019-02-17T21:37:44.189Z,23.59
2019-02-17T21:40:13.284Z,23.59
2019-02-17T21:42:41.699Z,23.59
2019-02-17T21:45:12.201Z,23.58
2019-02-17T21:47:40.648Z,23.57
2019-02-17T21:50:13.033Z,23.57
2019-02-17T21:52:43.066Z,23.56
2019-02-17T21:55:15.822Z,23.55
2019-02-17T21:57:44.304Z,23.54
2019-02-17T22:00:17.605Z,23.53
2019-02-17T22:02:46.064Z,23.53
2019-02-17T22:05:16.942Z,23.51
2019-02-17T22:07:45.349Z,23.51
2019-02-17T22:10:20.560Z,23.51
2019-02-17T22:12:51.053Z,23.49
2019-02-17T22:15:20.351Z,23.48
2019-02-17T22:17:48.831Z,23.48
2019-02-17T22:20:17.184Z,23.47
2019-02-17T22:22:45.587Z,23.47
2019-02-17T22:25:15.000Z,23.44
2019-02-17T22:27:43.401Z,23.43
2019-02-17T22:30:13.984Z,23.43
2019-02-17T22:32:42.770Z,23.42
2019-02-17T22:35:11.245Z,23.40
2019-02-17T22:37:39.636Z,23.39
2019-02-17T22:40:15.955Z,23.37
2019-02-17T22:42:44.357Z,23.38
2019-02-17T22:45:13.098Z,23.36
2019-02-17T22:47:41.551Z,23.35
2019-02-17T22:50:16.207Z,23.35
2019-02-17T22:52:46.312Z,23.32
2019-02-17T22:55:15.173Z,23.33
2019-02-17T22:57:43.579Z,23.32
2019-02-17T23:00:21.052Z,23.31
2019-02-17T23:02:49.510Z,23.31
2019-02-17T23:05:17.918Z,23.28
2019-02-17T23:07:46.326Z,23.28
2019-02-17T23:10:14.769Z,23.26
2019-02-17T23:12:43.167Z,23.26
2019-02-17T23:15:11.634Z,23.26
2019-02-17T23:17:40.116Z,23.24
2019-02-17T23:20:08.601Z,23.23
2019-02-17T23:22:37.499Z,23.22
2019-02-17T23:25:08.444Z,23.23
2019-02-17T23:27:36.848Z,23.22
2019-02-17T23:30:07.487Z,23.21
2019-02-17T23:32:36.009Z,23.20
2019-02-17T23:35:04.967Z,23.19
2019-02-17T23:37:33.373Z,23.20
2019-02-17T23:40:01.871Z,23.19
2019-02-17T23:42:30.320Z,23.17
2019-02-17T23:44:58.794Z,23.17
2019-02-17T23:47:27.410Z,23.14
2019-02-17T23:49:55.854Z,23.14
2019-02-17T23:52:24.252Z,23.13
2019-02-17T23:54:52.697Z,23.13
2019-02-17T23:57:21.172Z,23.12
2019-02-17T23:59:49.642Z,23.11
